Weather reports worldwide

Advertisment
Madrid, Spain (8222): temperature & dewpoint: 11.10.2018 08:00:00 - 17.10.2018 08:00:00 (CEST)Madrid, Spain (8222): wind speed & gusts: 11.10.2018 08:00:00 - 17.10.2018 08:00:00 (CEST)Madrid, Spain (8222): wind direction: 11.10.2018 08:00:00 - 17.10.2018 08:00:00 (CEST)Madrid, Spain (8222): reduced air pressure: 11.10.2018 08:00:00 - 17.10.2018 08:00:00 (CEST)Madrid, Spain (8222): precipitation: 11.10.2018 08:00:00 - 17.10.2018 08:00:00 (CEST)
Date & Time tt [°C] td [°C] ff [km/h] ff [kn] fx [km/h] fx [kn] dd ppp [hPa] rr [mm]
17.10.2018 08:00:00 - - - - - - - - -
17.10.2018 07:00:00 12,2 6,8 4 2 14 7 NE 1017,2 0,0
17.10.2018 06:00:00 12,3 6,8 6 3 16 9 NE 1017,2 0,0
17.10.2018 05:00:00 12,8 6,8 8 4 19 10 NE 1016,7 0,0
17.10.2018 04:00:00 13,4 7,6 6 3 13 7 NE 1016,6 0,0
17.10.2018 03:00:00 13,9 7,7 5 3 15 8 ENE 1016,8 0,0
17.10.2018 02:00:00 14,6 7,6 6 3 18 10 NE 1016,4 -
17.10.2018 01:00:00 15,3 7,8 6 3 16 9 NE 1016,3 0,0
17.10.2018 00:00:00 15,4 8,1 9 5 18 10 NE 1016,3 0,0
16.10.2018 23:00:00 14,4 7,8 3 1 9 5 N 1016,3 0,0
16.10.2018 22:00:00 14,9 7,0 6 3 10 6 NNW 1015,8 0,0
16.10.2018 21:00:00 15,9 6,8 0 0 0 0 N 1015,2 0,0
16.10.2018 20:00:00 16,8 6,8 0 0 4 2 N 1014,7 -
16.10.2018 19:00:00 18,8 6,5 0 0 8 4 N 1013,6 0,0
16.10.2018 18:00:00 19,4 6,5 3 1 9 5 SW 1013,2 0,0
16.10.2018 17:00:00 19,4 6,1 3 2 11 6 N 1013,3 0,0
16.10.2018 16:00:00 19,4 6,5 4 2 12 7 SE 1013,1 0,0
16.10.2018 15:00:00 19,4 7,8 4 2 13 7 ESE 1013,1 0,0
16.10.2018 14:00:00 17,7 8,3 5 3 14 8 ESE 1013,6 -
16.10.2018 13:00:00 16,1 8,4 7 4 16 9 ENE 1014,1 0,0
16.10.2018 12:00:00 14,6 8,3 7 4 19 10 NE 1014,5 0,0
16.10.2018 11:00:00 12,9 8,1 5 3 21 11 NE 1014,1 0,0
16.10.2018 10:00:00 11,8 8,3 10 5 19 11 NE 1014,0 0,0
16.10.2018 09:00:00 10,9 8,7 8 5 17 9 NE 1013,6 0,0
16.10.2018 08:00:00 10,5 8,4 2 1 8 5 ENE 1013,2 -
16.10.2018 07:00:00 11,1 8,7 0 0 8 4 N 1012,3 0,0
16.10.2018 06:00:00 11,4 8,9 4 2 12 6 E 1012,1 0,0
16.10.2018 05:00:00 11,2 8,9 3 2 12 6 NE 1012,0 0,0
16.10.2018 04:00:00 11,3 9,0 0 0 10 6 N 1012,0 0,0
16.10.2018 03:00:00 11,5 9,2 4 2 13 7 NE 1012,2 0,0
16.10.2018 02:00:00 11,4 8,8 2 1 7 4 E 1011,9 -
16.10.2018 01:00:00 11,9 8,9 3 2 12 6 E 1011,5 0,0
16.10.2018 00:00:00 12,5 8,8 5 3 9 5 ESE 1011,7 0,0
15.10.2018 23:00:00 12,4 8,7 1 0 6 3 E 1011,3 0,0
15.10.2018 22:00:00 12,4 8,7 1 0 6 3 SE 1010,8 0,0
15.10.2018 21:00:00 12,2 8,5 2 1 7 4 SSE 1010,1 0,0
15.10.2018 20:00:00 12,3 8,3 3 2 10 5 SW 1010,0 -
15.10.2018 19:00:00 12,4 8,3 0 0 8 4 S 1010,1 0,0
15.10.2018 18:00:00 12,3 8,0 1 1 10 5 SW 1010,2 0,0
15.10.2018 17:00:00 12,4 8,7 3 2 23 13 WSW 1009,4 0,0
15.10.2018 16:00:00 12,3 7,8 14 7 24 13 SW 1009,4 0,1
15.10.2018 15:00:00 14,2 6,1 8 4 22 12 SW 1008,6 0,0
15.10.2018 14:00:00 14,4 5,1 7 4 19 11 SSW 1009,0 -
15.10.2018 13:00:00 13,6 6,7 5 3 18 10 S 1009,6 0,0
15.10.2018 12:00:00 12,3 6,5 4 2 15 8 SW 1010,0 0,0
15.10.2018 11:00:00 10,4 6,1 5 3 19 10 SSW 1010,0 0,0
15.10.2018 10:00:00 9,4 5,9 7 4 15 8 SW 1010,4 0,0
15.10.2018 09:00:00 9,4 5,6 3 2 11 6 WSW 1010,0 0,0
15.10.2018 08:00:00 9,2 4,6 6 3 17 9 SW 1009,9 -
15.10.2018 07:00:00 9,6 4,6 4 2 24 13 W 1009,5 0,0
15.10.2018 06:00:00 9,7 4,6 9 5 19 10 W 1009,4 0,0
15.10.2018 05:00:00 10,3 5,3 6 4 17 9 W 1009,3 0,0
15.10.2018 04:00:00 10,6 5,3 2 1 19 10 WNW 1009,5 0,0
15.10.2018 03:00:00 10,8 5,6 4 2 14 8 W 1009,5 0,0
15.10.2018 02:00:00 11,3 5,5 5 3 19 10 WNW 1009,3 -
15.10.2018 01:00:00 11,8 5,1 8 4 28 15 NW 1009,3 0,0
15.10.2018 00:00:00 11,9 4,8 9 5 23 12 NW 1009,1 0,0
14.10.2018 23:00:00 12,0 5,0 9 5 23 12 W 1009,0 0,0
14.10.2018 22:00:00 12,2 4,1 6 3 21 11 W 1009,1 0,0
14.10.2018 21:00:00 12,5 3,9 6 3 32 17 NNW 1009,0 0,0
14.10.2018 20:00:00 12,7 4,1 14 8 41 22 W 1008,0 -
14.10.2018 19:00:00 13,3 3,9 18 10 44 24 W 1007,2 0,0
14.10.2018 18:00:00 14,5 3,9 16 9 37 20 WNW 1006,2 0,0
14.10.2018 17:00:00 14,9 4,3 16 9 36 19 WNW 1005,9 0,0
14.10.2018 16:00:00 14,4 5,0 13 7 32 18 WNW 1006,5 0,1
14.10.2018 15:00:00 14,8 6,1 11 6 35 19 W 1006,2 0,0
14.10.2018 14:00:00 13,4 7,0 13 7 34 19 W 1007,0 -
14.10.2018 13:00:00 13,6 8,4 13 7 39 21 W 1006,7 0,0
14.10.2018 12:00:00 13,5 10,2 16 9 35 19 WSW 1006,5 0,0
14.10.2018 11:00:00 13,0 10,9 13 7 30 16 SW 1006,4 0,0
14.10.2018 10:00:00 13,5 11,3 12 7 39 21 SSW 1005,3 0,0
14.10.2018 09:00:00 14,2 12,5 7 4 26 14 S 1003,2 0,0
14.10.2018 08:00:00 14,3 12,3 13 7 35 19 S 1003,1 -
14.10.2018 07:00:00 16,2 11,8 9 5 32 17 W 1005,7 0,7
14.10.2018 06:00:00 17,4 12,1 4 2 19 10 S 1005,5 0,0
14.10.2018 05:00:00 17,6 11,7 6 3 21 12 SSW 1005,9 0,0
14.10.2018 04:00:00 18,0 10,9 8 4 23 13 SSE 1005,9 0,0
14.10.2018 03:00:00 18,1 11,2 11 6 23 12 S 1006,4 0,0
14.10.2018 02:00:00 18,4 11,0 9 5 19 11 SSE 1007,2 -
14.10.2018 01:00:00 18,8 10,4 6 4 16 9 SSE 1008,3 0,0
14.10.2018 00:00:00 18,8 10,4 6 4 15 8 SSE 1008,8 0,0
13.10.2018 23:00:00 19,9 11,1 3 2 13 7 ESE 1009,0 0,0
13.10.2018 22:00:00 20,2 11,4 5 3 13 7 NE 1009,4 0,0
13.10.2018 21:00:00 19,9 11,7 0 0 5 3 E 1010,3 0,0
13.10.2018 20:00:00 21,0 11,3 0 0 0 0 N 1010,5 -
13.10.2018 19:00:00 22,6 11,3 0 0 12 6 WSW 1010,4 0,0
13.10.2018 18:00:00 23,7 11,1 4 2 17 9 SSW 1010,9 0,0
13.10.2018 17:00:00 24,0 11,0 3 1 19 10 SSW 1011,5 0,0
13.10.2018 16:00:00 24,0 11,7 5 3 18 10 WSW 1012,6 0,0
13.10.2018 15:00:00 23,4 11,4 6 4 16 9 SSW 1014,1 0,0
13.10.2018 14:00:00 - - - - - - - - -
13.10.2018 13:00:00 20,4 12,8 2 1 10 5 E 1016,6 0,0
13.10.2018 12:00:00 19,3 13,7 2 1 9 5 E 1017,7 0,0
13.10.2018 11:00:00 17,0 13,6 3 2 10 6 E 1018,5 0,0
13.10.2018 10:00:00 15,8 13,7 2 1 6 3 E 1018,6 0,0
13.10.2018 09:00:00 14,9 13,1 0 0 11 6 N 1018,5 0,0
13.10.2018 08:00:00 15,0 13,4 6 3 13 7 ENE 1018,0 -
13.10.2018 07:00:00 15,3 13,7 2 1 8 5 NE 1018,4 0,0
13.10.2018 06:00:00 15,1 13,5 2 1 7 4 NE 1018,8 0,0
13.10.2018 05:00:00 15,5 13,7 0 0 8 4 ESE 1018,9 0,0
13.10.2018 04:00:00 15,9 13,9 3 1 9 5 ENE 1019,5 0,0
13.10.2018 03:00:00 15,8 13,7 3 1 6 3 ESE 1020,2 0,0
13.10.2018 02:00:00 16,4 13,9 2 1 8 4 ENE 1020,1 -
13.10.2018 01:00:00 16,3 14,1 1 0 6 3 E 1020,6 0,0
13.10.2018 00:00:00 16,6 13,9 1 0 4 2 NE 1021,1 0,0
12.10.2018 23:00:00 17,1 14,0 0 0 4 2 SSW 1021,1 0,0
12.10.2018 22:00:00 17,4 13,9 0 0 8 4 N 1020,9 0,0
12.10.2018 21:00:00 17,7 13,7 3 2 5 3 W 1020,5 0,0
12.10.2018 20:00:00 18,5 13,4 3 1 8 4 W 1020,4 -
12.10.2018 19:00:00 20,0 13,5 2 1 11 6 WSW 1019,9 0,0
12.10.2018 18:00:00 20,6 13,6 5 3 15 8 W 1020,1 0,0
12.10.2018 17:00:00 20,7 13,0 5 3 16 8 SW 1020,2 0,0
12.10.2018 16:00:00 20,3 13,9 4 2 10 5 SSE 1020,3 0,0
12.10.2018 15:00:00 19,2 14,9 3 2 11 6 SW 1021,0 0,0
12.10.2018 14:00:00 17,0 15,0 5 3 19 10 WNW 1022,1 -
12.10.2018 13:00:00 17,1 14,7 4 2 13 7 WNW 1022,1 0,0
12.10.2018 12:00:00 17,9 13,9 5 3 15 8 WSW 1021,3 0,0
12.10.2018 11:00:00 17,6 14,7 5 3 15 8 SW 1021,0 0,0
12.10.2018 10:00:00 16,3 14,6 1 1 11 6 SSW 1020,3 0,0
12.10.2018 09:00:00 16,0 14,7 4 2 11 6 S 1019,5 0,0
12.10.2018 08:00:00 16,0 14,9 3 1 11 6 SSW 1018,8 -
12.10.2018 07:00:00 16,1 14,6 5 3 12 7 SSW 1018,3 0,1
12.10.2018 06:00:00 16,2 14,7 3 2 13 7 S 1018,0 0,0
12.10.2018 05:00:00 16,4 14,7 3 2 18 10 WSW 1017,7 0,3
12.10.2018 04:00:00 17,1 14,1 5 3 21 11 SSW 1017,5 0,0
12.10.2018 03:00:00 17,2 14,8 3 2 14 8 S 1017,4 0,0
12.10.2018 02:00:00 17,3 14,6 4 2 11 6 S 1017,3 -
12.10.2018 01:00:00 17,5 14,8 1 0 12 7 SSW 1017,0 0,0
12.10.2018 00:00:00 17,8 14,9 7 4 18 10 SW 1016,4 0,0
11.10.2018 23:00:00 18,1 15,0 4 2 12 7 WSW 1015,9 0,0
11.10.2018 22:00:00 18,1 14,8 3 2 16 9 WSW 1015,3 0,0
11.10.2018 21:00:00 18,6 13,3 5 3 19 10 W 1014,4 0,0
11.10.2018 20:00:00 - - - - - - - - -
11.10.2018 19:00:00 20,2 13,0 11 6 32 17 SW 1011,2 0,0
11.10.2018 18:00:00 20,4 13,4 14 8 28 15 SW 1010,8 0,0
11.10.2018 17:00:00 20,2 15,0 8 5 24 13 WSW 1010,8 0,0
11.10.2018 16:00:00 19,9 14,0 8 5 29 15 SSW 1010,8 0,0
11.10.2018 15:00:00 20,0 14,1 16 8 31 17 SW 1009,5 0,0
11.10.2018 14:00:00 17,7 15,2 9 5 26 14 S 1010,8 -
11.10.2018 13:00:00 16,6 15,4 4 2 17 9 S 1011,8 0,1
11.10.2018 12:00:00 15,6 14,4 6 3 18 10 S 1011,9 0,1
11.10.2018 11:00:00 15,0 13,9 3 2 19 10 S 1011,4 0,5
11.10.2018 10:00:00 14,6 13,0 6 4 18 10 S 1010,7 1,3
11.10.2018 09:00:00 15,0 12,3 8 4 21 11 S 1009,4 0,0
11.10.2018 08:00:00 14,7 12,0 5 3 16 9 SSE 1009,1 -

tt = temperature
td = dewpoint
ff = wind speed
fx = gusts
dd = wind direction
ppp = reduced air pressure
rr = precipitation

Next stations